Flight Number: EUR3002 Duration: 8:30
Departure: Budapest Ferihegy (LHBP) at 05:30 Distance: 2982 Nm
Arrival: Montreal (CYUL) at 15:00 Equipment: B747

Weather Information
Budapest / Ferihegy, Hungary (LHBP) 47-26N 019-16E 185M May 20, 2018 - 10:00 AM EDT / 2018.05.20 1400 UTC
Wind: from the NE (040 degrees) at 9 MPH (8 KT) (direction variable):0
Visibility: greater than 7 mile(s):0 Temperature: 75 F (24 C) Dew Point: 55 F (13 C) Relative Humidity: 50% Pressure (altimeter): 30.09 in. Hg (1019 hPa)
ob: LHBP 201400Z 04008KT 350V090 CAVOK 24/13 Q1019 NOSIG cycle: 14
Sunrise: 03:03 Sunset: 18:15 (UTC)

Montreal / Pierre Elliot Trudeau International Airport, Que, Canada (CYUL) 45-28N 073-45W 36M May 20, 2018 - 10:00 AM EDT / 2018.05.20 1400 UTC
Wind: from the WNW (290 degrees) at 5 MPH (4 KT) (direction variable):0
Visibility: 15 mile(s):0
Sky conditions: mostly cloudy Temperature: 62 F (17 C) Dew Point: 55 F (13 C) Relative Humidity: 77% Pressure (altimeter): 29.86 in. Hg (1011 hPa)
ob: CYUL 201400Z 29004KT 250V010 15SM BKN017 BKN030 BKN090 17/13 A2986 RMK CF5SC2AC1 AC TR SLP114 DENSITY ALT 500FT cycle: 14
Sunrise: 09:22 Sunset: 00:20 (UTC)

TAF:2018/05/20 14:00 TAF AMD CYUL 201406Z 2014/2112 29005KT P6SM BKN030 TEMPO 2014/2017 BKN015 FM201800 32010KT P6SM FEW040 BECMG 2020/2022 28008KT BECMG 2105/2107 VRB03KT RMK NXT FCST BY 201500Z

Previous Pireps for this route
Date Aircraft Flight time Fuel used Landing rate On time
2016-10-01B74708.48193159-175No
(pireps marked green are flown by you)

Route map